Impacts METAR Board
IDs:

KFLL - Ft Lauderdale-Hollyw, FL, US

Updated at: 1200 UTC 27 Feb 2021
Potential Impact None Slight Moderate High
Time 27/00Z 27/01Z 27/02Z 27/03Z 27/04Z 27/05Z 27/06Z 27/07Z 27/08Z 27/09Z 27/10Z 27/11Z 27/12Z
Temp77 77 77 76 77 77 76 76 77 76 76 76 75
Dewpt69 69 68 70 71 71 70 70 70 70 69 70 70
Altim30.13 30.14 30.16 30.16 30.16 30.15 30.13 30.12 30.12 30.12 30.14 30.14 30.16
VIS10 10 10 10 10 10 10 10 10 10 10 10 10
CIG-- -- -- -- -- -- -- -- -- 30 35 -- --
CoverFEWSCTFEWFEWSCTFEWSCTFEWFEWBKNBKNFEWFEW
FltCatVFRVFRVFRVFRVFRVFRVFRVFRVFRMVFRVFRVFRVFR
WX--------------------------
WDir110110100110120120120130120120130130130
WSpd9 9 10 10 10 12 13 12 12 12 10 9 9
WGst-- -- -- -- -- -- -- -- -- -- -- -- --
Raw hourly METARs
KFLL 262353Z 11009KT 10SM FEW025 25/21 A3013 RMK AO2 SLP203 T02500206 10278 20250 51007
KFLL 270053Z 11009KT 10SM SCT025 25/21 A3014 RMK AO2 SLP207 T02500206
KFLL 270153Z 10010KT 10SM FEW025 25/20 A3016 RMK AO2 SLP211 T02500200
KFLL 270253Z 11010KT 10SM FEW023 24/21 A3016 RMK AO2 SLP212 T02440211 51009
KFLL 270353Z 12010KT 10SM SCT021 25/22 A3016 RMK AO2 SLP211 T02500217
KFLL 270453Z 12012KT 10SM FEW020 FEW030 25/22 A3015 RMK AO2 SLP208 T02500217 402780228
KFLL 270553Z 12013KT 10SM FEW022 SCT030 24/21 A3013 RMK AO2 SLP203 T02440211 10250 20244 58009
KFLL 270653Z 13012KT 10SM FEW022 FEW032 24/21 A3012 RMK AO2 SLP200 T02440211
KFLL 270753Z 12012KT 10SM FEW020 25/21 A3012 RMK AO2 SLP199 T02500211
KFLL 270853Z 12012KT 10SM SCT022 BKN030 BKN055 24/21 A3012 RMK AO2 SLP200 T02440211 55003
KFLL 270953Z 13010KT 10SM SCT025 BKN035 BKN055 24/21 A3014 RMK AO2 SLP204 T02440206
KFLL 271053Z 13009KT 10SM FEW020 FEW050 24/21 A3014 RMK AO2 SLP206 T02440211
KFLL 271153Z 13009KT 10SM FEW023 24/21 A3016 RMK AO2 SLP213 T02390211 10250 20239 53013



Page loaded:  12:20 UTC  |   04:20 AM Pacific  |   05:20 AM Mountain  |   06:20 AM Central  |   07:20 AM Eastern

 

ADVISORIES

FORECASTS

FORECASTS

OBSERVATIONS

USER TOOLS

ABOUT US